createdAt,value
2023-03-12T00:01:43.321Z,39.50
2023-03-12T00:03:45.300Z,38.72
2023-03-12T00:05:46.934Z,39.09
2023-03-12T00:07:48.958Z,39.42
2023-03-12T00:09:50.525Z,39.23
2023-03-12T00:11:52.138Z,38.77
2023-03-12T00:13:58.919Z,38.85
2023-03-12T00:16:04.766Z,38.71
2023-03-12T00:18:06.435Z,39.02
2023-03-12T00:20:09.950Z,38.50
2023-03-12T00:22:11.634Z,39.41
2023-03-12T00:24:15.751Z,38.79
2023-03-12T00:26:18.471Z,39.36
2023-03-12T00:28:20.035Z,39.21
2023-03-12T00:30:23.123Z,39.03
2023-03-12T00:32:24.938Z,39.03
2023-03-12T00:34:26.569Z,39.40
2023-03-12T00:36:31.131Z,39.26
2023-03-12T00:38:32.854Z,38.99
2023-03-12T00:40:34.525Z,39.41
2023-03-12T00:42:36.166Z,40.42
2023-03-12T00:44:37.861Z,40.41
2023-03-12T00:46:40.972Z,39.61
2023-03-12T00:48:42.781Z,40.00
2023-03-12T00:50:44.481Z,40.37
2023-03-12T00:52:46.051Z,40.12
2023-03-12T00:54:47.637Z,40.49
2023-03-12T00:56:49.892Z,40.64
2023-03-12T00:58:51.444Z,40.80
2023-03-12T01:00:53.239Z,40.49
2023-03-12T01:02:56.414Z,41.01
2023-03-12T01:04:57.968Z,40.43
2023-03-12T01:06:59.528Z,40.61
2023-03-12T01:09:01.493Z,41.23
2023-03-12T01:11:03.152Z,40.75
2023-03-12T01:13:04.731Z,40.56
2023-03-12T01:15:07.871Z,41.23
2023-03-12T01:17:09.846Z,40.58
2023-03-12T01:19:12.851Z,41.57
2023-03-12T01:21:14.652Z,41.13
2023-03-12T01:23:16.288Z,41.39
2023-03-12T01:25:17.948Z,41.32
2023-03-12T01:27:19.520Z,41.50
2023-03-12T01:29:21.145Z,41.79
2023-03-12T01:31:22.692Z,41.72
2023-03-12T01:33:24.284Z,41.84
2023-03-12T01:35:27.388Z,41.85
2023-03-12T01:37:29.504Z,41.41
2023-03-12T01:39:31.222Z,41.32
2023-03-12T01:41:33.948Z,41.76
2023-03-12T01:43:38.662Z,41.35
2023-03-12T01:46:02.264Z,41.44
2023-03-12T01:48:04.379Z,41.50
2023-03-12T01:50:06.438Z,39.76
2023-03-12T01:52:13.512Z,40.08
2023-03-12T01:54:18.573Z,39.98
2023-03-12T01:56:21.730Z,40.08
2023-03-12T01:58:23.529Z,40.01
2023-03-12T02:00:27.047Z,40.10
2023-03-12T02:02:29.151Z,40.20
2023-03-12T02:04:34.138Z,40.00
2023-03-12T02:06:42.375Z,40.46
2023-03-12T02:08:47.886Z,40.07
2023-03-12T02:10:49.622Z,40.33
2023-03-12T02:12:51.780Z,40.27
2023-03-12T02:14:53.574Z,40.19
2023-03-12T02:16:55.844Z,40.15
2023-03-12T02:19:01.404Z,40.31
2023-03-12T02:21:12.419Z,40.65
2023-03-12T02:23:21.394Z,40.79
2023-03-12T02:25:30.945Z,40.55
2023-03-12T02:27:36.161Z,40.39
2023-03-12T02:29:41.221Z,40.84
2023-03-12T02:31:45.877Z,41.12
2023-03-12T02:33:47.522Z,41.17
2023-03-12T02:35:49.271Z,41.85
2023-03-12T02:37:52.856Z,41.23
2023-03-12T02:40:00.147Z,41.16
2023-03-12T02:42:03.584Z,41.20
2023-03-12T02:44:09.829Z,41.36
2023-03-12T02:46:12.310Z,42.33
2023-03-12T02:48:14.094Z,42.08
2023-03-12T02:50:16.180Z,42.22
2023-03-12T02:52:17.768Z,42.23
2023-03-12T02:54:20.758Z,42.43
2023-03-12T02:56:23.905Z,42.68
2023-03-12T02:58:26.940Z,43.11
2023-03-12T03:00:28.542Z,43.59
2023-03-12T03:02:30.090Z,43.76
2023-03-12T03:04:32.092Z,43.35
2023-03-12T03:06:35.209Z,43.23
2023-03-12T03:08:36.831Z,43.74
2023-03-12T03:10:38.497Z,43.44
2023-03-12T03:12:40.084Z,43.18
2023-03-12T03:14:42.993Z,43.62
2023-03-12T03:16:44.628Z,44.15
2023-03-12T03:18:46.343Z,43.84
2023-03-12T03:20:55.453Z,44.28
2023-03-12T03:22:57.134Z,44.31
2023-03-12T03:24:58.696Z,44.16
2023-03-12T03:27:00.241Z,44.08
2023-03-12T03:29:01.863Z,43.83
2023-03-12T03:31:05.096Z,43.99
2023-03-12T03:33:06.656Z,43.83
2023-03-12T03:35:09.227Z,43.83
2023-03-12T03:37:10.910Z,44.01
2023-03-12T03:39:12.493Z,43.77
2023-03-12T03:41:14.845Z,44.06
2023-03-12T03:43:16.560Z,44.21
2023-03-12T03:45:18.380Z,44.63
2023-03-12T03:47:21.982Z,44.49
2023-03-12T03:49:23.983Z,44.24
2023-03-12T03:51:25.508Z,44.24
2023-03-12T03:53:27.131Z,43.74
2023-03-12T03:55:29.083Z,43.59
2023-03-12T03:57:30.894Z,43.60
2023-03-12T03:59:32.495Z,43.92
2023-03-12T04:01:34.118Z,44.00
2023-03-12T04:03:37.153Z,43.93
2023-03-12T04:05:38.796Z,43.75
2023-03-12T04:07:40.553Z,43.25
2023-03-12T04:09:42.512Z,44.05
2023-03-12T04:11:44.187Z,44.70
2023-03-12T04:13:46.623Z,44.43
2023-03-12T04:15:49.392Z,44.40
2023-03-12T04:17:51.142Z,44.49
2023-03-12T04:19:54.393Z,44.09
2023-03-12T04:21:55.969Z,44.50
2023-03-12T04:23:57.691Z,43.48
2023-03-12T04:25:59.552Z,43.49
2023-03-12T04:28:01.272Z,43.72
2023-03-12T04:30:03.548Z,43.32
2023-03-12T04:32:06.369Z,44.05
2023-03-12T04:34:08.059Z,44.43
2023-03-12T04:36:12.119Z,44.23
2023-03-12T04:38:13.766Z,44.12
2023-03-12T04:40:15.394Z,44.24
2023-03-12T04:42:17.102Z,43.88
2023-03-12T04:44:18.650Z,44.39
2023-03-12T04:46:20.222Z,44.51
2023-03-12T04:48:21.810Z,43.89
2023-03-12T04:50:23.430Z,44.22
2023-03-12T04:52:26.613Z,44.90
2023-03-12T04:54:28.172Z,43.96
2023-03-12T04:56:30.076Z,43.65
2023-03-12T04:58:31.654Z,43.67
2023-03-12T05:00:33.257Z,43.83
2023-03-12T05:02:34.902Z,44.36
2023-03-12T05:04:37.192Z,44.79
2023-03-12T05:06:38.815Z,44.79
2023-03-12T05:08:41.785Z,45.47
2023-03-12T05:10:43.304Z,45.69
2023-03-12T05:12:44.919Z,45.11
2023-03-12T05:14:46.459Z,45.66
2023-03-12T05:16:48.273Z,45.21
2023-03-12T05:18:50.008Z,45.17
2023-03-12T05:20:58.776Z,45.63
2023-03-12T05:23:00.367Z,45.33
2023-03-12T05:25:03.952Z,46.28
2023-03-12T05:27:06.758Z,47.35
2023-03-12T05:29:08.574Z,48.06
2023-03-12T05:31:11.354Z,48.83
2023-03-12T05:33:13.043Z,49.64
2023-03-12T05:35:14.580Z,50.29
2023-03-12T05:37:16.191Z,50.71
2023-03-12T05:39:17.793Z,51.00
2023-03-12T05:41:23.117Z,51.76
2023-03-12T05:43:24.864Z,51.87
2023-03-12T05:45:26.589Z,52.65
2023-03-12T05:47:28.294Z,53.07
2023-03-12T05:49:30.668Z,53.40
2023-03-12T05:51:32.403Z,53.21
2023-03-12T05:53:33.982Z,53.06
2023-03-12T05:55:35.767Z,53.20
2023-03-12T05:57:41.722Z,53.50
2023-03-12T05:59:43.340Z,53.85
2023-03-12T06:01:44.924Z,53.98
2023-03-12T06:03:46.847Z,53.94
2023-03-12T06:05:48.468Z,54.16
2023-03-12T06:07:50.441Z,54.37
2023-03-12T06:09:52.012Z,54.22
2023-03-12T06:11:53.599Z,54.46
2023-03-12T06:13:56.976Z,54.53
2023-03-12T06:16:02.719Z,54.37
2023-03-12T06:18:04.566Z,54.67
2023-03-12T06:20:07.784Z,54.60
2023-03-12T06:22:09.501Z,54.55
2023-03-12T06:24:11.028Z,54.81
2023-03-12T06:26:13.883Z,54.68
2023-03-12T06:28:15.484Z,54.79
2023-03-12T06:30:18.702Z,54.84
2023-03-12T06:32:20.309Z,54.88
2023-03-12T06:34:21.948Z,54.83
2023-03-12T06:36:23.518Z,55.34
2023-03-12T06:38:25.697Z,55.03
2023-03-12T06:40:27.267Z,54.94
2023-03-12T06:42:28.779Z,54.99
2023-03-12T06:44:30.396Z,54.91
2023-03-12T06:46:33.498Z,55.24
2023-03-12T06:48:35.920Z,55.19
2023-03-12T06:50:37.595Z,55.20
2023-03-12T06:52:39.196Z,55.27
2023-03-12T06:54:41.033Z,55.46
2023-03-12T06:56:42.646Z,55.38
2023-03-12T06:58:44.698Z,54.98
2023-03-12T07:00:46.391Z,55.22
2023-03-12T07:02:49.611Z,55.39
2023-03-12T07:04:51.211Z,54.66
2023-03-12T07:06:52.822Z,55.57
2023-03-12T07:08:54.395Z,55.56
2023-03-12T07:10:56.128Z,55.68
2023-03-12T07:12:57.663Z,55.37
2023-03-12T07:14:59.236Z,55.87
2023-03-12T07:17:00.873Z,55.84
2023-03-12T07:19:03.916Z,55.47
2023-03-12T07:21:05.829Z,54.90
2023-03-12T07:23:07.674Z,56.47
2023-03-12T07:25:09.705Z,56.75
2023-03-12T07:27:11.286Z,56.45
2023-03-12T07:29:12.984Z,56.89
2023-03-12T07:31:15.123Z,57.03
2023-03-12T07:33:18.507Z,57.01
2023-03-12T07:35:21.628Z,57.51
2023-03-12T07:37:23.737Z,57.42
2023-03-12T07:39:25.687Z,57.19
2023-03-12T07:41:28.338Z,57.40
2023-03-12T07:43:30.007Z,56.96
2023-03-12T07:45:31.781Z,57.78
2023-03-12T07:47:33.691Z,57.37
2023-03-12T07:49:35.568Z,57.07
2023-03-12T07:51:38.589Z,55.94
2023-03-12T07:53:40.255Z,56.84
2023-03-12T07:55:44.489Z,56.72
2023-03-12T07:57:46.112Z,57.60
2023-03-12T07:59:48.341Z,57.09
2023-03-12T08:01:50.104Z,57.00
2023-03-12T08:03:51.728Z,56.87
2023-03-12T08:05:58.086Z,56.98
2023-03-12T08:08:01.121Z,57.33
2023-03-12T08:10:05.262Z,56.13
2023-03-12T08:12:07.516Z,55.93
2023-03-12T08:14:09.430Z,57.28
2023-03-12T08:16:11.036Z,57.24
2023-03-12T08:18:12.762Z,56.73
2023-03-12T08:20:14.802Z,56.87
2023-03-12T08:22:16.375Z,55.96
2023-03-12T08:24:20.013Z,57.11
2023-03-12T08:26:21.615Z,57.72
2023-03-12T08:28:24.317Z,57.04
2023-03-12T08:30:27.769Z,57.27
2023-03-12T08:32:31.632Z,57.83
2023-03-12T08:34:33.347Z,56.96
2023-03-12T08:36:34.971Z,57.50
2023-03-12T08:38:36.818Z,57.15
2023-03-12T08:40:39.785Z,57.34
2023-03-12T08:42:42.297Z,57.94
2023-03-12T08:44:44.213Z,58.38
2023-03-12T08:46:45.775Z,58.35
2023-03-12T08:48:47.901Z,58.37
2023-03-12T08:50:49.483Z,58.81
2023-03-12T08:52:51.038Z,57.96
2023-03-12T08:54:52.721Z,58.38
2023-03-12T08:56:55.620Z,57.96
2023-03-12T08:58:58.353Z,58.55
2023-03-12T09:01:00.032Z,58.44
2023-03-12T09:03:01.665Z,59.49
2023-03-12T09:05:03.689Z,58.92
2023-03-12T09:07:06.121Z,59.08
2023-03-12T09:09:08.323Z,59.48
2023-03-12T09:11:10.986Z,59.37
2023-03-12T09:13:13.960Z,58.56
2023-03-12T09:15:15.838Z,59.53
2023-03-12T09:17:17.785Z,59.82
2023-03-12T09:19:19.369Z,60.02
2023-03-12T09:21:21.733Z,60.32
2023-03-12T09:23:23.914Z,60.68
2023-03-12T09:25:25.643Z,60.74
2023-03-12T09:27:27.213Z,60.82
2023-03-12T09:29:30.550Z,60.92
2023-03-12T09:31:32.837Z,60.91
2023-03-12T09:33:34.348Z,61.55
2023-03-12T09:35:36.279Z,61.90
2023-03-12T09:37:38.687Z,62.59
2023-03-12T09:39:40.280Z,61.81
2023-03-12T09:41:44.407Z,61.60
2023-03-12T09:43:51.709Z,61.56
2023-03-12T09:45:56.735Z,61.60
2023-03-12T09:48:00.894Z,61.74
2023-03-12T09:50:16.798Z,61.83
2023-03-12T09:52:23.993Z,60.87
2023-03-12T09:54:33.114Z,60.94
2023-03-12T09:56:35.107Z,61.46
2023-03-12T09:58:38.265Z,60.26
2023-03-12T10:00:40.138Z,60.47
2023-03-12T10:03:16.852Z,61.27
2023-03-12T10:05:24.342Z,61.29
2023-03-12T10:07:32.363Z,61.61
2023-03-12T10:10:01.682Z,61.10
2023-03-12T10:12:14.755Z,61.33
2023-03-12T10:14:28.251Z,61.40
2023-03-12T10:16:50.435Z,62.04
2023-03-12T10:19:11.298Z,61.18
2023-03-12T10:21:20.040Z,61.62
2023-03-12T10:23:42.884Z,61.75
2023-03-12T10:25:50.401Z,60.62
2023-03-12T10:27:52.047Z,61.69
2023-03-12T10:29:55.095Z,61.51
2023-03-12T10:32:00.713Z,61.05
2023-03-12T10:34:12.720Z,61.43
2023-03-12T10:36:17.937Z,61.84
2023-03-12T10:38:26.756Z,61.49
2023-03-12T10:40:30.714Z,62.13
2023-03-12T10:42:32.748Z,61.47
2023-03-12T10:44:34.876Z,61.87
2023-03-12T10:46:51.124Z,61.88
2023-03-12T10:49:29.589Z,61.34
2023-03-12T10:51:31.126Z,60.49
2023-03-12T10:53:34.766Z,60.57
2023-03-12T10:55:36.384Z,60.21
2023-03-12T10:57:41.081Z,60.67
2023-03-12T10:59:44.340Z,60.36
2023-03-12T11:01:52.610Z,60.13
2023-03-12T11:04:14.201Z,60.81
2023-03-12T11:06:23.337Z,60.89
2023-03-12T11:08:27.475Z,60.92
2023-03-12T11:10:42.313Z,61.12
2023-03-12T11:12:53.866Z,61.30
2023-03-12T11:14:55.462Z,61.47
2023-03-12T11:16:57.723Z,61.52
2023-03-12T11:19:01.041Z,60.84
2023-03-12T11:21:16.201Z,61.48
2023-03-12T11:23:22.580Z,61.35
2023-03-12T11:25:25.895Z,60.87
2023-03-12T11:27:40.150Z,61.42
2023-03-12T11:29:47.948Z,61.00
2023-03-12T11:31:58.812Z,61.03
2023-03-12T11:34:05.932Z,61.09
2023-03-12T11:36:22.860Z,61.27
2023-03-12T11:38:34.481Z,61.11
2023-03-12T11:40:58.713Z,61.08
2023-03-12T11:43:15.864Z,60.57
2023-03-12T11:45:26.948Z,59.80
2023-03-12T11:47:44.953Z,59.85
2023-03-12T11:50:15.181Z,59.81
2023-03-12T11:52:27.339Z,59.78
2023-03-12T11:55:08.249Z,59.61
2023-03-12T11:57:19.043Z,60.46
2023-03-12T11:59:32.772Z,60.14
2023-03-12T12:01:56.473Z,60.22
2023-03-12T12:04:27.895Z,59.31
2023-03-12T12:06:38.384Z,59.00
2023-03-12T12:08:52.829Z,58.62
2023-03-12T12:11:05.916Z,57.88
2023-03-12T12:13:15.844Z,57.39
2023-03-12T12:15:26.879Z,57.21
2023-03-12T12:17:44.211Z,56.43
2023-03-12T12:20:01.142Z,55.02
2023-03-12T12:22:24.413Z,54.16
2023-03-12T12:24:37.759Z,53.45
2023-03-12T12:26:47.756Z,51.70
2023-03-12T12:29:17.287Z,49.85
2023-03-12T12:31:29.153Z,50.02
2023-03-12T12:33:45.280Z,50.98
2023-03-12T12:35:47.071Z,51.94
2023-03-12T12:37:54.165Z,51.15
2023-03-12T12:40:05.240Z,50.95
2023-03-12T12:42:15.058Z,51.40
2023-03-12T12:44:21.180Z,51.98
2023-03-12T12:46:25.370Z,52.53
2023-03-12T12:48:32.868Z,52.54
2023-03-12T12:50:38.446Z,52.81
2023-03-12T12:52:41.008Z,53.67
2023-03-12T12:54:51.744Z,54.05
2023-03-12T12:57:00.550Z,54.38
2023-03-12T12:59:26.542Z,55.20
2023-03-12T13:01:29.353Z,55.99
2023-03-12T13:03:31.456Z,55.79
2023-03-12T13:05:46.006Z,56.59
2023-03-12T13:07:48.718Z,56.92
2023-03-12T13:09:52.418Z,57.84
2023-03-12T13:11:55.402Z,58.05
2023-03-12T13:14:21.219Z,58.11
2023-03-12T13:16:32.913Z,58.03
2023-03-12T13:18:36.820Z,57.81
2023-03-12T13:20:47.297Z,57.98
2023-03-12T13:23:03.323Z,58.05
2023-03-12T13:25:23.051Z,57.95
2023-03-12T13:27:28.819Z,57.67
2023-03-12T13:29:40.330Z,57.99
2023-03-12T13:31:42.797Z,58.29
2023-03-12T13:33:45.855Z,58.51
2023-03-12T13:36:20.196Z,58.68
2023-03-12T13:38:36.092Z,59.14
2023-03-12T13:40:54.929Z,59.41
2023-03-12T13:43:05.372Z,59.47
2023-03-12T13:45:40.593Z,59.31
2023-03-12T13:47:43.170Z,58.61
2023-03-12T13:49:52.307Z,58.48
2023-03-12T13:51:57.859Z,58.03
2023-03-12T13:54:01.639Z,58.01
2023-03-12T13:56:07.237Z,58.08
2023-03-12T13:58:13.638Z,58.38
2023-03-12T14:00:19.894Z,57.80
2023-03-12T14:02:27.038Z,55.48
2023-03-12T14:04:40.101Z,57.64
2023-03-12T14:06:58.065Z,57.31
2023-03-12T14:09:24.484Z,59.07
2023-03-12T14:11:45.036Z,55.41
2023-03-12T14:14:21.976Z,54.67
2023-03-12T14:16:33.613Z,54.24
2023-03-12T14:18:38.290Z,53.78
2023-03-12T14:20:40.555Z,54.55
2023-03-12T14:22:45.842Z,54.04
2023-03-12T14:24:51.039Z,52.54
2023-03-12T14:26:55.310Z,52.47
2023-03-12T14:29:00.557Z,53.25
2023-03-12T14:31:04.890Z,52.72
2023-03-12T14:33:09.970Z,52.88
2023-03-12T14:35:19.764Z,53.13
2023-03-12T14:37:25.329Z,52.66
2023-03-12T14:39:31.922Z,52.20
2023-03-12T14:41:39.621Z,53.12
2023-03-12T14:43:43.156Z,52.67
2023-03-12T14:45:44.735Z,53.23
2023-03-12T14:47:48.550Z,54.04
2023-03-12T14:49:50.883Z,53.26
2023-03-12T14:51:54.596Z,53.92
2023-03-12T14:53:56.746Z,54.18
2023-03-12T14:56:03.095Z,54.50
2023-03-12T14:58:06.333Z,54.13
2023-03-12T15:00:15.274Z,54.55
2023-03-12T15:02:19.422Z,54.22
2023-03-12T15:04:24.327Z,54.23
2023-03-12T15:06:29.926Z,53.97
2023-03-12T15:08:39.611Z,53.89
2023-03-12T15:10:48.320Z,53.74
2023-03-12T15:12:51.271Z,53.49
2023-03-12T15:14:55.760Z,53.04
2023-03-12T15:17:00.057Z,52.97
2023-03-12T15:19:03.025Z,52.25
2023-03-12T15:21:06.425Z,52.02
2023-03-12T15:23:11.756Z,52.40
2023-03-12T15:25:27.061Z,52.44
2023-03-12T15:27:33.312Z,52.63
2023-03-12T15:29:41.473Z,52.90
2023-03-12T15:31:44.841Z,53.25
2023-03-12T15:34:00.227Z,52.51
2023-03-12T15:36:04.932Z,52.92
2023-03-12T15:38:14.046Z,53.29
2023-03-12T15:40:21.672Z,53.46
2023-03-12T15:42:26.560Z,53.54
2023-03-12T15:44:34.195Z,52.99
2023-03-12T15:46:35.922Z,53.12
2023-03-12T15:48:40.371Z,53.44
2023-03-12T15:50:45.151Z,53.13
2023-03-12T15:53:02.746Z,53.78
2023-03-12T15:55:21.994Z,53.61
2023-03-12T15:57:25.828Z,53.68
2023-03-12T15:59:28.449Z,53.70
2023-03-12T16:01:30.352Z,52.84
2023-03-12T16:03:31.959Z,53.29
2023-03-12T16:05:36.160Z,52.95
2023-03-12T16:07:38.363Z,52.59
2023-03-12T16:09:39.959Z,53.12
2023-03-12T16:11:41.869Z,52.58
2023-03-12T16:13:45.690Z,52.43
2023-03-12T16:15:48.261Z,51.99
2023-03-12T16:17:49.926Z,52.39
2023-03-12T16:19:51.551Z,52.41
2023-03-12T16:21:53.212Z,52.64
2023-03-12T16:23:54.804Z,52.29
2023-03-12T16:25:58.358Z,52.48
2023-03-12T16:28:03.178Z,52.59
2023-03-12T16:30:14.859Z,52.28
2023-03-12T16:32:17.420Z,52.36
2023-03-12T16:34:19.082Z,52.55
2023-03-12T16:36:20.775Z,52.09
2023-03-12T16:38:22.577Z,52.36
2023-03-12T16:40:33.326Z,52.90
2023-03-12T16:42:36.289Z,52.92
2023-03-12T16:44:38.046Z,52.75
2023-03-12T16:46:41.143Z,52.26
2023-03-12T16:48:42.819Z,52.25
2023-03-12T16:50:49.536Z,52.52
2023-03-12T16:52:51.866Z,52.77
2023-03-12T16:54:53.927Z,52.23
2023-03-12T16:56:55.852Z,52.33
2023-03-12T16:59:06.744Z,52.14
2023-03-12T17:01:12.274Z,52.23
2023-03-12T17:03:22.003Z,52.31
2023-03-12T17:05:23.930Z,52.01
2023-03-12T17:07:25.702Z,51.99
2023-03-12T17:09:27.245Z,51.87
2023-03-12T17:11:31.637Z,52.34
2023-03-12T17:13:36.593Z,51.80
2023-03-12T17:15:39.351Z,51.29
2023-03-12T17:17:41.026Z,51.44
2023-03-12T17:19:43.944Z,51.19
2023-03-12T17:21:46.584Z,50.88
2023-03-12T17:23:49.899Z,50.82
2023-03-12T17:25:51.739Z,50.52
2023-03-12T17:27:53.827Z,50.54
2023-03-12T17:29:55.448Z,50.48
2023-03-12T17:31:57.011Z,50.39
2023-03-12T17:33:58.643Z,50.09
2023-03-12T17:36:03.805Z,50.44
2023-03-12T17:38:05.807Z,49.99
2023-03-12T17:40:09.013Z,49.95
2023-03-12T17:42:10.594Z,49.95
2023-03-12T17:44:12.235Z,50.07
2023-03-12T17:46:13.919Z,49.85
2023-03-12T17:48:16.189Z,50.23
2023-03-12T17:50:18.069Z,50.28
2023-03-12T17:52:21.081Z,49.84
2023-03-12T17:54:22.770Z,50.17
2023-03-12T17:56:24.545Z,50.48
2023-03-12T17:58:26.223Z,50.74
2023-03-12T18:00:27.827Z,50.50
2023-03-12T18:02:29.405Z,50.62
2023-03-12T18:04:31.386Z,50.70
2023-03-12T18:06:32.997Z,50.36
2023-03-12T18:08:36.048Z,51.77
2023-03-12T18:10:38.053Z,51.12
2023-03-12T18:12:40.000Z,50.73
2023-03-12T18:14:41.620Z,50.41
2023-03-12T18:16:43.332Z,50.65
2023-03-12T18:18:44.972Z,50.86
2023-03-12T18:20:48.123Z,50.91
2023-03-12T18:22:49.786Z,50.80
2023-03-12T18:24:52.691Z,51.04
2023-03-12T18:26:54.296Z,50.78
2023-03-12T18:28:56.152Z,51.11
2023-03-12T18:30:57.770Z,51.15
2023-03-12T18:32:59.500Z,51.04
2023-03-12T18:35:01.217Z,51.32
2023-03-12T18:37:02.852Z,51.44
2023-03-12T18:39:04.698Z,51.42
2023-03-12T18:41:10.607Z,51.32
2023-03-12T18:43:12.382Z,51.12
2023-03-12T18:45:17.278Z,51.26
2023-03-12T18:47:19.358Z,50.83
2023-03-12T18:49:21.296Z,51.25
2023-03-12T18:51:23.007Z,51.52
2023-03-12T18:53:24.849Z,51.50
2023-03-12T18:55:26.482Z,51.42
2023-03-12T18:57:29.567Z,51.30
2023-03-12T18:59:32.421Z,51.09
2023-03-12T19:01:34.133Z,51.41
2023-03-12T19:03:35.713Z,51.21
2023-03-12T19:05:37.558Z,51.30
2023-03-12T19:07:39.688Z,51.27
2023-03-12T19:09:41.250Z,51.54
2023-03-12T19:11:42.914Z,51.44
2023-03-12T19:13:49.425Z,51.42
2023-03-12T19:15:57.371Z,51.37
2023-03-12T19:17:59.114Z,51.06
2023-03-12T19:20:00.696Z,50.88
2023-03-12T19:22:02.244Z,51.00
2023-03-12T19:24:04.485Z,51.20
2023-03-12T19:26:06.425Z,50.94
2023-03-12T19:28:08.058Z,51.08
2023-03-12T19:30:12.599Z,51.18
2023-03-12T19:32:14.132Z,51.30
2023-03-12T19:34:15.745Z,51.22
2023-03-12T19:36:17.455Z,51.34
2023-03-12T19:38:19.080Z,51.24
2023-03-12T19:40:20.685Z,51.22
2023-03-12T19:42:22.778Z,51.27
2023-03-12T19:44:24.474Z,50.91
2023-03-12T19:46:27.446Z,50.87
2023-03-12T19:48:29.060Z,51.14
2023-03-12T19:50:30.569Z,51.23
2023-03-12T19:52:32.244Z,50.90
2023-03-12T19:54:34.037Z,51.27
2023-03-12T19:56:35.619Z,51.25
2023-03-12T19:58:37.207Z,51.12
2023-03-12T20:00:38.798Z,51.58
2023-03-12T20:02:41.948Z,51.73
2023-03-12T20:04:43.543Z,51.46
2023-03-12T20:06:45.303Z,51.34
2023-03-12T20:08:46.874Z,51.15
2023-03-12T20:10:48.830Z,51.13
2023-03-12T20:12:50.389Z,51.22
2023-03-12T20:14:52.242Z,51.18
2023-03-12T20:16:53.857Z,50.84
2023-03-12T20:18:57.385Z,50.92
2023-03-12T20:20:58.999Z,50.83
2023-03-12T20:23:00.662Z,50.89
2023-03-12T20:25:02.716Z,50.84
2023-03-12T20:27:04.642Z,51.30
2023-03-12T20:29:06.753Z,51.24
2023-03-12T20:31:09.132Z,51.24
2023-03-12T20:33:10.720Z,51.35
2023-03-12T20:35:13.681Z,51.35
2023-03-12T20:37:15.249Z,51.20
2023-03-12T20:39:16.806Z,51.49
2023-03-12T20:41:18.383Z,51.38
2023-03-12T20:43:19.969Z,51.58
2023-03-12T20:45:21.508Z,51.63
2023-03-12T20:47:23.362Z,51.73
2023-03-12T20:49:25.294Z,51.97
2023-03-12T20:51:28.216Z,52.15
2023-03-12T20:53:29.875Z,52.15
2023-03-12T20:55:31.691Z,52.03
2023-03-12T20:57:34.194Z,52.02
2023-03-12T20:59:36.025Z,52.39
2023-03-12T21:01:37.949Z,52.33
2023-03-12T21:03:39.546Z,52.30
2023-03-12T21:05:41.652Z,52.69
2023-03-12T21:07:44.702Z,52.63
2023-03-12T21:09:46.261Z,52.63
2023-03-12T21:11:47.901Z,52.64
2023-03-12T21:13:49.491Z,52.48
2023-03-12T21:15:51.043Z,52.49
2023-03-12T21:17:52.602Z,52.58
2023-03-12T21:19:54.381Z,52.51
2023-03-12T21:21:56.121Z,52.75
2023-03-12T21:24:00.340Z,52.88
2023-03-12T21:26:04.219Z,52.92
2023-03-12T21:28:07.330Z,53.09
2023-03-12T21:30:10.326Z,53.26
2023-03-12T21:32:11.934Z,53.02
2023-03-12T21:34:13.622Z,53.22
2023-03-12T21:36:15.418Z,53.20
2023-03-12T21:38:17.369Z,53.39
2023-03-12T21:40:20.504Z,53.19
2023-03-12T21:42:22.138Z,53.44
2023-03-12T21:44:24.226Z,53.50
2023-03-12T21:46:25.949Z,53.78
2023-03-12T21:48:27.521Z,53.60
2023-03-12T21:50:29.149Z,53.74
2023-03-12T21:52:30.708Z,53.69
2023-03-12T21:54:32.993Z,53.67
2023-03-12T21:56:36.105Z,53.70
2023-03-12T21:58:37.753Z,53.57
2023-03-12T22:00:39.333Z,53.60
2023-03-12T22:02:41.282Z,53.52
2023-03-12T22:04:42.869Z,53.45
2023-03-12T22:06:44.479Z,53.45
2023-03-12T22:08:47.109Z,53.43
2023-03-12T22:10:49.049Z,53.38
2023-03-12T22:12:51.946Z,53.29
2023-03-12T22:14:53.835Z,53.21
2023-03-12T22:16:55.377Z,53.42
2023-03-12T22:18:57.070Z,53.32
2023-03-12T22:21:00.276Z,53.33
2023-03-12T22:23:01.851Z,53.47
2023-03-12T22:25:08.624Z,53.33
2023-03-12T22:27:10.219Z,53.44
2023-03-12T22:29:13.289Z,53.24
2023-03-12T22:31:14.985Z,53.39
2023-03-12T22:33:16.655Z,53.47
2023-03-12T22:35:18.287Z,53.43
2023-03-12T22:37:19.935Z,53.36
2023-03-12T22:39:21.540Z,53.69
2023-03-12T22:41:25.454Z,53.55
2023-03-12T22:43:27.281Z,53.63
2023-03-12T22:45:30.447Z,53.46
2023-03-12T22:47:32.161Z,53.53
2023-03-12T22:49:33.817Z,53.59
2023-03-12T22:51:35.498Z,53.51
2023-03-12T22:53:37.255Z,53.32
2023-03-12T22:55:38.819Z,53.43
2023-03-12T22:57:40.434Z,53.36
2023-03-12T22:59:41.962Z,53.46
2023-03-12T23:01:44.919Z,53.70
2023-03-12T23:03:47.666Z,53.53
2023-03-12T23:05:49.267Z,53.60
2023-03-12T23:07:50.897Z,53.56
2023-03-12T23:09:53.421Z,53.41
2023-03-12T23:11:55.015Z,53.43
2023-03-12T23:13:56.595Z,53.56
2023-03-12T23:16:01.682Z,53.40
2023-03-12T23:18:04.651Z,53.54
2023-03-12T23:20:07.197Z,53.49
2023-03-12T23:22:09.535Z,53.65
2023-03-12T23:24:11.128Z,53.77
2023-03-12T23:26:14.664Z,53.39
2023-03-12T23:28:16.700Z,53.28
2023-03-12T23:30:18.276Z,53.17
2023-03-12T23:32:19.966Z,53.15
2023-03-12T23:34:23.012Z,53.07
2023-03-12T23:36:25.604Z,53.06
2023-03-12T23:38:28.646Z,53.02
2023-03-12T23:40:30.260Z,52.87
2023-03-12T23:42:32.253Z,53.07
2023-03-12T23:44:33.856Z,53.05
2023-03-12T23:46:35.676Z,53.07
2023-03-12T23:48:38.366Z,53.13
2023-03-12T23:50:41.363Z,53.12
2023-03-12T23:52:42.959Z,53.17
2023-03-12T23:54:44.581Z,53.01
2023-03-12T23:56:46.143Z,52.91
2023-03-12T23:58:49.397Z,52.74
